sensor_id;sensor_type;location;lat;lon;timestamp;P1;durP1;ratioP1;P2;durP2;ratioP2
11203;SDS011;5659;49.408;11.116;2023-05-07T00:02:26;8.90;;;4.23;;
11203;SDS011;5659;49.408;11.116;2023-05-07T00:04:52;10.18;;;4.10;;
11203;SDS011;5659;49.408;11.116;2023-05-07T00:07:18;7.65;;;4.35;;
11203;SDS011;5659;49.408;11.116;2023-05-07T00:09:44;6.70;;;4.35;;
11203;SDS011;5659;49.408;11.116;2023-05-07T00:12:09;5.43;;;4.27;;
11203;SDS011;5659;49.408;11.116;2023-05-07T00:14:35;9.43;;;4.57;;
11203;SDS011;5659;49.408;11.116;2023-05-07T00:17:01;8.15;;;4.15;;
11203;SDS011;5659;49.408;11.116;2023-05-07T00:19:27;6.37;;;4.10;;
11203;SDS011;5659;49.408;11.116;2023-05-07T00:21:53;7.18;;;4.43;;
11203;SDS011;5659;49.408;11.116;2023-05-07T00:24:20;7.38;;;4.57;;
11203;SDS011;5659;49.408;11.116;2023-05-07T00:26:46;7.73;;;4.60;;
11203;SDS011;5659;49.408;11.116;2023-05-07T00:29:12;8.93;;;5.00;;
11203;SDS011;5659;49.408;11.116;2023-05-07T00:31:38;7.22;;;5.18;;
11203;SDS011;5659;49.408;11.116;2023-05-07T00:34:04;9.02;;;4.80;;
11203;SDS011;5659;49.408;11.116;2023-05-07T00:36:31;12.07;;;4.22;;
11203;SDS011;5659;49.408;11.116;2023-05-07T00:38:58;9.77;;;4.10;;
11203;SDS011;5659;49.408;11.116;2023-05-07T00:41:25;6.97;;;4.28;;
11203;SDS011;5659;49.408;11.116;2023-05-07T00:43:51;11.68;;;3.83;;
11203;SDS011;5659;49.408;11.116;2023-05-07T00:46:17;12.25;;;4.13;;
11203;SDS011;5659;49.408;11.116;2023-05-07T00:48:43;6.40;;;3.50;;
11203;SDS011;5659;49.408;11.116;2023-05-07T00:51:09;5.13;;;3.40;;
11203;SDS011;5659;49.408;11.116;2023-05-07T00:53:36;5.00;;;3.13;;
11203;SDS011;5659;49.408;11.116;2023-05-07T00:56:02;6.43;;;3.88;;
11203;SDS011;5659;49.408;11.116;2023-05-07T00:58:28;5.47;;;4.10;;
11203;SDS011;5659;49.408;11.116;2023-05-07T01:00:55;6.72;;;4.07;;
11203;SDS011;5659;49.408;11.116;2023-05-07T01:03:21;8.65;;;3.70;;
11203;SDS011;5659;49.408;11.116;2023-05-07T01:05:47;4.63;;;3.13;;
11203;SDS011;5659;49.408;11.116;2023-05-07T01:08:13;4.50;;;3.33;;
11203;SDS011;5659;49.408;11.116;2023-05-07T01:10:41;4.18;;;3.53;;
11203;SDS011;5659;49.408;11.116;2023-05-07T01:13:08;6.25;;;3.72;;
11203;SDS011;5659;49.408;11.116;2023-05-07T01:15:35;7.28;;;3.70;;
11203;SDS011;5659;49.408;11.116;2023-05-07T01:18:01;7.80;;;3.47;;
11203;SDS011;5659;49.408;11.116;2023-05-07T01:20:27;4.13;;;3.50;;
11203;SDS011;5659;49.408;11.116;2023-05-07T01:22:54;6.15;;;3.67;;
11203;SDS011;5659;49.408;11.116;2023-05-07T01:25:20;6.18;;;3.58;;
11203;SDS011;5659;49.408;11.116;2023-05-07T01:27:46;6.18;;;4.07;;
11203;SDS011;5659;49.408;11.116;2023-05-07T01:30:12;10.13;;;3.78;;
11203;SDS011;5659;49.408;11.116;2023-05-07T01:35:05;7.68;;;4.05;;
11203;SDS011;5659;49.408;11.116;2023-05-07T01:37:31;4.80;;;3.70;;
11203;SDS011;5659;49.408;11.116;2023-05-07T01:39:57;6.57;;;3.53;;
11203;SDS011;5659;49.408;11.116;2023-05-07T01:42:24;4.28;;;3.45;;
11203;SDS011;5659;49.408;11.116;2023-05-07T01:44:50;5.47;;;3.60;;
11203;SDS011;5659;49.408;11.116;2023-05-07T01:47:16;7.97;;;3.60;;
11203;SDS011;5659;49.408;11.116;2023-05-07T01:49:42;8.88;;;3.90;;
11203;SDS011;5659;49.408;11.116;2023-05-07T01:52:10;8.80;;;3.90;;
11203;SDS011;5659;49.408;11.116;2023-05-07T01:54:36;4.55;;;3.60;;
11203;SDS011;5659;49.408;11.116;2023-05-07T01:57:03;8.88;;;3.75;;
11203;SDS011;5659;49.408;11.116;2023-05-07T01:59:29;5.50;;;4.03;;
11203;SDS011;5659;49.408;11.116;2023-05-07T02:01:55;17.48;;;4.47;;
11203;SDS011;5659;49.408;11.116;2023-05-07T02:04:21;33.25;;;7.55;;
11203;SDS011;5659;49.408;11.116;2023-05-07T02:06:47;27.55;;;7.65;;
11203;SDS011;5659;49.408;11.116;2023-05-07T02:09:13;38.17;;;10.90;;
11203;SDS011;5659;49.408;11.116;2023-05-07T02:11:40;10.63;;;5.00;;
11203;SDS011;5659;49.408;11.116;2023-05-07T02:14:06;5.15;;;3.95;;
11203;SDS011;5659;49.408;11.116;2023-05-07T02:16:32;7.10;;;4.05;;
11203;SDS011;5659;49.408;11.116;2023-05-07T02:18:57;7.65;;;3.88;;
11203;SDS011;5659;49.408;11.116;2023-05-07T02:21:24;8.15;;;4.32;;
11203;SDS011;5659;49.408;11.116;2023-05-07T02:23:50;10.23;;;4.50;;
11203;SDS011;5659;49.408;11.116;2023-05-07T02:26:16;12.30;;;4.15;;
11203;SDS011;5659;49.408;11.116;2023-05-07T02:28:42;6.05;;;4.00;;
11203;SDS011;5659;49.408;11.116;2023-05-07T02:31:08;7.40;;;4.03;;
11203;SDS011;5659;49.408;11.116;2023-05-07T02:33:34;8.23;;;4.27;;
11203;SDS011;5659;49.408;11.116;2023-05-07T02:36:08;6.23;;;4.37;;
11203;SDS011;5659;49.408;11.116;2023-05-07T02:38:34;10.07;;;4.53;;
11203;SDS011;5659;49.408;11.116;2023-05-07T02:41:00;5.28;;;3.80;;
11203;SDS011;5659;49.408;11.116;2023-05-07T02:43:26;6.20;;;3.80;;
11203;SDS011;5659;49.408;11.116;2023-05-07T02:46:05;9.85;;;4.57;;
11203;SDS011;5659;49.408;11.116;2023-05-07T02:48:32;4.83;;;3.93;;
11203;SDS011;5659;49.408;11.116;2023-05-07T02:50:58;7.83;;;4.30;;
11203;SDS011;5659;49.408;11.116;2023-05-07T02:53:24;8.48;;;4.68;;
11203;SDS011;5659;49.408;11.116;2023-05-07T02:55:51;8.40;;;4.50;;
11203;SDS011;5659;49.408;11.116;2023-05-07T02:58:17;6.43;;;4.40;;
11203;SDS011;5659;49.408;11.116;2023-05-07T03:00:43;5.37;;;4.40;;
11203;SDS011;5659;49.408;11.116;2023-05-07T03:03:09;7.50;;;4.23;;
11203;SDS011;5659;49.408;11.116;2023-05-07T03:05:35;6.87;;;4.40;;
11203;SDS011;5659;49.408;11.116;2023-05-07T03:08:01;4.97;;;4.07;;
11203;SDS011;5659;49.408;11.116;2023-05-07T03:10:28;12.53;;;4.50;;
11203;SDS011;5659;49.408;11.116;2023-05-07T03:12:54;6.90;;;4.67;;
11203;SDS011;5659;49.408;11.116;2023-05-07T03:15:20;9.77;;;4.57;;
11203;SDS011;5659;49.408;11.116;2023-05-07T03:17:47;5.23;;;4.63;;
11203;SDS011;5659;49.408;11.116;2023-05-07T03:20:13;7.43;;;4.83;;
11203;SDS011;5659;49.408;11.116;2023-05-07T03:22:39;5.47;;;4.50;;
11203;SDS011;5659;49.408;11.116;2023-05-07T03:25:05;5.37;;;4.47;;
11203;SDS011;5659;49.408;11.116;2023-05-07T03:27:31;7.90;;;5.00;;
11203;SDS011;5659;49.408;11.116;2023-05-07T03:29:57;6.80;;;5.17;;
11203;SDS011;5659;49.408;11.116;2023-05-07T03:32:23;7.27;;;5.27;;
11203;SDS011;5659;49.408;11.116;2023-05-07T03:34:49;9.23;;;4.70;;
11203;SDS011;5659;49.408;11.116;2023-05-07T03:37:15;7.00;;;4.97;;
11203;SDS011;5659;49.408;11.116;2023-05-07T03:39:41;6.90;;;4.70;;
11203;SDS011;5659;49.408;11.116;2023-05-07T03:42:07;9.13;;;4.87;;
11203;SDS011;5659;49.408;11.116;2023-05-07T03:44:33;7.40;;;4.83;;
11203;SDS011;5659;49.408;11.116;2023-05-07T03:47:01;8.20;;;4.63;;
11203;SDS011;5659;49.408;11.116;2023-05-07T03:49:27;7.77;;;4.80;;
11203;SDS011;5659;49.408;11.116;2023-05-07T03:51:53;6.20;;;4.90;;
11203;SDS011;5659;49.408;11.116;2023-05-07T03:54:18;5.97;;;4.50;;
11203;SDS011;5659;49.408;11.116;2023-05-07T03:56:44;7.30;;;4.77;;
11203;SDS011;5659;49.408;11.116;2023-05-07T03:59:11;5.80;;;4.63;;
11203;SDS011;5659;49.408;11.116;2023-05-07T04:01:38;6.87;;;4.90;;
11203;SDS011;5659;49.408;11.116;2023-05-07T04:04:04;7.63;;;5.27;;
11203;SDS011;5659;49.408;11.116;2023-05-07T04:06:30;17.30;;;4.90;;
11203;SDS011;5659;49.408;11.116;2023-05-07T04:08:56;6.73;;;4.83;;
11203;SDS011;5659;49.408;11.116;2023-05-07T04:11:22;8.97;;;5.00;;
11203;SDS011;5659;49.408;11.116;2023-05-07T04:13:48;6.50;;;5.03;;
11203;SDS011;5659;49.408;11.116;2023-05-07T04:16:14;8.10;;;5.47;;
11203;SDS011;5659;49.408;11.116;2023-05-07T04:18:40;9.87;;;5.67;;
11203;SDS011;5659;49.408;11.116;2023-05-07T04:21:13;9.43;;;5.60;;
11203;SDS011;5659;49.408;11.116;2023-05-07T04:23:39;8.07;;;6.07;;
11203;SDS011;5659;49.408;11.116;2023-05-07T04:26:05;7.83;;;5.67;;
11203;SDS011;5659;49.408;11.116;2023-05-07T04:28:32;7.80;;;5.77;;
11203;SDS011;5659;49.408;11.116;2023-05-07T04:30:57;6.73;;;5.70;;
11203;SDS011;5659;49.408;11.116;2023-05-07T04:33:23;5.73;;;5.17;;
11203;SDS011;5659;49.408;11.116;2023-05-07T04:35:49;5.93;;;5.33;;
11203;SDS011;5659;49.408;11.116;2023-05-07T04:38:15;7.30;;;6.00;;
11203;SDS011;5659;49.408;11.116;2023-05-07T04:40:43;7.23;;;5.70;;
11203;SDS011;5659;49.408;11.116;2023-05-07T04:43:09;10.40;;;5.57;;
11203;SDS011;5659;49.408;11.116;2023-05-07T04:45:35;8.40;;;6.03;;
11203;SDS011;5659;49.408;11.116;2023-05-07T04:48:01;6.73;;;5.77;;
11203;SDS011;5659;49.408;11.116;2023-05-07T04:50:27;7.90;;;5.95;;
11203;SDS011;5659;49.408;11.116;2023-05-07T04:52:53;6.73;;;5.73;;
11203;SDS011;5659;49.408;11.116;2023-05-07T04:55:19;7.13;;;5.67;;
11203;SDS011;5659;49.408;11.116;2023-05-07T04:57:45;7.75;;;6.25;;
11203;SDS011;5659;49.408;11.116;2023-05-07T05:00:12;8.80;;;7.10;;
11203;SDS011;5659;49.408;11.116;2023-05-07T05:02:39;7.65;;;6.80;;
11203;SDS011;5659;49.408;11.116;2023-05-07T05:05:06;9.63;;;7.73;;
11203;SDS011;5659;49.408;11.116;2023-05-07T05:07:32;11.73;;;7.93;;
11203;SDS011;5659;49.408;11.116;2023-05-07T05:09:58;9.55;;;7.55;;
11203;SDS011;5659;49.408;11.116;2023-05-07T05:12:24;8.52;;;7.53;;
11203;SDS011;5659;49.408;11.116;2023-05-07T05:14:50;9.63;;;7.80;;
11203;SDS011;5659;49.408;11.116;2023-05-07T05:17:16;10.00;;;8.05;;
11203;SDS011;5659;49.408;11.116;2023-05-07T05:19:42;10.52;;;7.78;;
11203;SDS011;5659;49.408;11.116;2023-05-07T05:22:08;7.93;;;7.03;;
11203;SDS011;5659;49.408;11.116;2023-05-07T05:24:34;8.93;;;7.20;;
11203;SDS011;5659;49.408;11.116;2023-05-07T05:27:00;11.40;;;7.30;;
11203;SDS011;5659;49.408;11.116;2023-05-07T05:29:26;8.10;;;6.85;;
11203;SDS011;5659;49.408;11.116;2023-05-07T05:31:52;8.77;;;6.30;;
11203;SDS011;5659;49.408;11.116;2023-05-07T05:34:18;8.43;;;6.57;;
11203;SDS011;5659;49.408;11.116;2023-05-07T05:36:45;7.00;;;6.15;;
11203;SDS011;5659;49.408;11.116;2023-05-07T05:39:11;7.38;;;6.13;;
11203;SDS011;5659;49.408;11.116;2023-05-07T05:41:37;7.80;;;5.90;;
11203;SDS011;5659;49.408;11.116;2023-05-07T05:44:03;9.77;;;6.45;;
11203;SDS011;5659;49.408;11.116;2023-05-07T05:46:29;10.60;;;6.70;;
11203;SDS011;5659;49.408;11.116;2023-05-07T05:48:55;10.68;;;6.85;;
11203;SDS011;5659;49.408;11.116;2023-05-07T05:51:22;9.07;;;6.70;;
11203;SDS011;5659;49.408;11.116;2023-05-07T05:53:48;13.02;;;6.88;;
11203;SDS011;5659;49.408;11.116;2023-05-07T05:56:14;11.95;;;7.13;;
11203;SDS011;5659;49.408;11.116;2023-05-07T05:58:41;9.23;;;6.80;;
11203;SDS011;5659;49.408;11.116;2023-05-07T06:01:07;8.38;;;6.75;;
11203;SDS011;5659;49.408;11.116;2023-05-07T06:03:33;8.10;;;6.80;;
11203;SDS011;5659;49.408;11.116;2023-05-07T06:05:59;9.23;;;6.80;;
11203;SDS011;5659;49.408;11.116;2023-05-07T06:08:25;15.25;;;6.57;;
11203;SDS011;5659;49.408;11.116;2023-05-07T06:10:51;8.30;;;6.85;;
11203;SDS011;5659;49.408;11.116;2023-05-07T06:13:17;10.75;;;6.32;;
11203;SDS011;5659;49.408;11.116;2023-05-07T06:15:43;7.82;;;6.65;;
11203;SDS011;5659;49.408;11.116;2023-05-07T06:18:09;7.38;;;6.55;;
11203;SDS011;5659;49.408;11.116;2023-05-07T06:20:35;7.70;;;5.85;;
11203;SDS011;5659;49.408;11.116;2023-05-07T06:23:01;6.40;;;5.80;;
11203;SDS011;5659;49.408;11.116;2023-05-07T06:25:27;10.27;;;5.88;;
11203;SDS011;5659;49.408;11.116;2023-05-07T06:27:53;9.18;;;6.80;;
11203;SDS011;5659;49.408;11.116;2023-05-07T06:30:19;8.57;;;6.57;;
11203;SDS011;5659;49.408;11.116;2023-05-07T06:32:45;7.28;;;6.13;;
11203;SDS011;5659;49.408;11.116;2023-05-07T06:35:11;7.57;;;6.50;;
11203;SDS011;5659;49.408;11.116;2023-05-07T06:37:37;9.23;;;6.05;;
11203;SDS011;5659;49.408;11.116;2023-05-07T06:40:07;8.60;;;6.32;;
11203;SDS011;5659;49.408;11.116;2023-05-07T06:42:33;6.18;;;5.47;;
11203;SDS011;5659;49.408;11.116;2023-05-07T06:44:59;8.32;;;6.10;;
11203;SDS011;5659;49.408;11.116;2023-05-07T06:47:25;8.50;;;6.22;;
11203;SDS011;5659;49.408;11.116;2023-05-07T06:49:51;6.72;;;5.35;;
11203;SDS011;5659;49.408;11.116;2023-05-07T06:52:17;6.65;;;5.97;;
11203;SDS011;5659;49.408;11.116;2023-05-07T06:54:43;6.47;;;5.70;;
11203;SDS011;5659;49.408;11.116;2023-05-07T06:57:09;7.05;;;5.90;;
11203;SDS011;5659;49.408;11.116;2023-05-07T06:59:35;7.63;;;5.85;;
11203;SDS011;5659;49.408;11.116;2023-05-07T07:02:01;8.55;;;5.80;;
11203;SDS011;5659;49.408;11.116;2023-05-07T07:04:27;8.80;;;5.90;;
11203;SDS011;5659;49.408;11.116;2023-05-07T07:06:53;6.30;;;5.68;;
11203;SDS011;5659;49.408;11.116;2023-05-07T07:09:21;7.63;;;6.00;;
11203;SDS011;5659;49.408;11.116;2023-05-07T07:11:47;6.43;;;5.50;;
11203;SDS011;5659;49.408;11.116;2023-05-07T07:14:13;9.13;;;5.40;;
11203;SDS011;5659;49.408;11.116;2023-05-07T07:16:39;7.22;;;5.32;;
11203;SDS011;5659;49.408;11.116;2023-05-07T07:19:05;6.22;;;5.60;;
11203;SDS011;5659;49.408;11.116;2023-05-07T07:21:31;6.15;;;5.50;;
11203;SDS011;5659;49.408;11.116;2023-05-07T07:23:57;7.70;;;5.55;;
11203;SDS011;5659;49.408;11.116;2023-05-07T07:26:23;5.85;;;5.25;;
11203;SDS011;5659;49.408;11.116;2023-05-07T07:28:49;8.00;;;5.45;;
11203;SDS011;5659;49.408;11.116;2023-05-07T07:31:15;6.07;;;4.97;;
11203;SDS011;5659;49.408;11.116;2023-05-07T07:33:41;7.20;;;5.15;;
11203;SDS011;5659;49.408;11.116;2023-05-07T07:36:07;7.50;;;5.45;;
11203;SDS011;5659;49.408;11.116;2023-05-07T07:38:34;6.07;;;4.60;;
11203;SDS011;5659;49.408;11.116;2023-05-07T07:41:00;7.25;;;4.63;;
11203;SDS011;5659;49.408;11.116;2023-05-07T07:43:26;8.85;;;5.13;;
11203;SDS011;5659;49.408;11.116;2023-05-07T07:45:52;6.53;;;4.90;;
11203;SDS011;5659;49.408;11.116;2023-05-07T07:48:19;5.97;;;4.70;;
11203;SDS011;5659;49.408;11.116;2023-05-07T07:50:44;5.97;;;5.00;;
11203;SDS011;5659;49.408;11.116;2023-05-07T07:53:10;6.72;;;4.97;;
11203;SDS011;5659;49.408;11.116;2023-05-07T07:55:40;6.05;;;4.47;;
11203;SDS011;5659;49.408;11.116;2023-05-07T07:58:06;5.30;;;4.68;;
11203;SDS011;5659;49.408;11.116;2023-05-07T08:00:32;6.18;;;4.57;;
11203;SDS011;5659;49.408;11.116;2023-05-07T08:02:57;7.57;;;4.70;;
11203;SDS011;5659;49.408;11.116;2023-05-07T08:05:24;6.97;;;4.63;;
11203;SDS011;5659;49.408;11.116;2023-05-07T08:07:50;6.63;;;4.35;;
11203;SDS011;5659;49.408;11.116;2023-05-07T08:10:19;6.38;;;4.50;;
11203;SDS011;5659;49.408;11.116;2023-05-07T08:12:48;6.70;;;4.50;;
11203;SDS011;5659;49.408;11.116;2023-05-07T08:15:15;5.47;;;4.22;;
11203;SDS011;5659;49.408;11.116;2023-05-07T08:17:41;4.78;;;4.10;;
11203;SDS011;5659;49.408;11.116;2023-05-07T08:20:07;5.75;;;4.05;;
11203;SDS011;5659;49.408;11.116;2023-05-07T08:22:34;5.10;;;4.05;;
11203;SDS011;5659;49.408;11.116;2023-05-07T08:25:00;5.10;;;3.80;;
11203;SDS011;5659;49.408;11.116;2023-05-07T08:27:26;10.65;;;4.35;;
11203;SDS011;5659;49.408;11.116;2023-05-07T08:29:52;6.38;;;3.90;;
11203;SDS011;5659;49.408;11.116;2023-05-07T08:32:18;6.60;;;3.80;;
11203;SDS011;5659;49.408;11.116;2023-05-07T08:34:44;5.97;;;4.22;;
11203;SDS011;5659;49.408;11.116;2023-05-07T08:37:11;6.00;;;3.50;;
11203;SDS011;5659;49.408;11.116;2023-05-07T08:39:37;9.40;;;3.92;;
11203;SDS011;5659;49.408;11.116;2023-05-07T08:42:03;8.30;;;4.30;;
11203;SDS011;5659;49.408;11.116;2023-05-07T08:44:32;5.45;;;4.32;;
11203;SDS011;5659;49.408;11.116;2023-05-07T08:46:59;5.05;;;3.85;;
11203;SDS011;5659;49.408;11.116;2023-05-07T08:49:26;5.30;;;3.67;;
11203;SDS011;5659;49.408;11.116;2023-05-07T08:51:53;5.03;;;3.88;;
11203;SDS011;5659;49.408;11.116;2023-05-07T08:54:19;4.57;;;4.05;;
11203;SDS011;5659;49.408;11.116;2023-05-07T08:56:46;4.10;;;3.38;;
11203;SDS011;5659;49.408;11.116;2023-05-07T08:59:12;7.75;;;3.90;;
11203;SDS011;5659;49.408;11.116;2023-05-07T09:01:38;4.93;;;3.40;;
11203;SDS011;5659;49.408;11.116;2023-05-07T09:04:04;6.95;;;3.50;;
11203;SDS011;5659;49.408;11.116;2023-05-07T09:06:31;4.45;;;3.53;;
11203;SDS011;5659;49.408;11.116;2023-05-07T09:08:57;7.78;;;4.00;;
11203;SDS011;5659;49.408;11.116;2023-05-07T09:11:26;4.15;;;3.50;;
11203;SDS011;5659;49.408;11.116;2023-05-07T09:13:55;5.47;;;3.60;;
11203;SDS011;5659;49.408;11.116;2023-05-07T09:16:23;3.33;;;2.90;;
11203;SDS011;5659;49.408;11.116;2023-05-07T09:18:52;5.13;;;3.65;;
11203;SDS011;5659;49.408;11.116;2023-05-07T09:21:19;3.85;;;3.45;;
11203;SDS011;5659;49.408;11.116;2023-05-07T09:23:47;5.25;;;3.50;;
11203;SDS011;5659;49.408;11.116;2023-05-07T09:26:13;4.55;;;3.53;;
11203;SDS011;5659;49.408;11.116;2023-05-07T09:28:40;5.68;;;3.05;;
11203;SDS011;5659;49.408;11.116;2023-05-07T09:31:07;7.10;;;3.47;;
11203;SDS011;5659;49.408;11.116;2023-05-07T09:33:33;6.38;;;3.08;;
11203;SDS011;5659;49.408;11.116;2023-05-07T09:36:01;4.53;;;3.10;;
11203;SDS011;5659;49.408;11.116;2023-05-07T09:38:28;10.00;;;2.97;;
11203;SDS011;5659;49.408;11.116;2023-05-07T09:41:03;4.55;;;2.60;;
11203;SDS011;5659;49.408;11.116;2023-05-07T09:43:37;3.33;;;2.60;;
11203;SDS011;5659;49.408;11.116;2023-05-07T09:46:07;4.78;;;2.80;;
11203;SDS011;5659;49.408;11.116;2023-05-07T09:48:37;3.92;;;2.47;;
11203;SDS011;5659;49.408;11.116;2023-05-07T09:51:06;5.38;;;2.90;;
11203;SDS011;5659;49.408;11.116;2023-05-07T09:53:33;6.25;;;2.88;;
11203;SDS011;5659;49.408;11.116;2023-05-07T09:55:59;3.78;;;2.60;;
11203;SDS011;5659;49.408;11.116;2023-05-07T09:58:26;2.83;;;2.63;;
11203;SDS011;5659;49.408;11.116;2023-05-07T10:00:52;3.63;;;2.70;;
11203;SDS011;5659;49.408;11.116;2023-05-07T10:03:18;3.45;;;3.00;;
11203;SDS011;5659;49.408;11.116;2023-05-07T10:05:45;6.93;;;2.50;;
11203;SDS011;5659;49.408;11.116;2023-05-07T10:08:12;3.13;;;2.45;;
11203;SDS011;5659;49.408;11.116;2023-05-07T10:10:39;3.20;;;2.90;;
11203;SDS011;5659;49.408;11.116;2023-05-07T10:13:06;3.65;;;2.50;;
11203;SDS011;5659;49.408;11.116;2023-05-07T10:15:35;2.97;;;2.60;;
11203;SDS011;5659;49.408;11.116;2023-05-07T10:18:03;4.90;;;2.78;;
11203;SDS011;5659;49.408;11.116;2023-05-07T10:20:29;3.95;;;2.80;;
11203;SDS011;5659;49.408;11.116;2023-05-07T10:22:55;5.30;;;2.90;;
11203;SDS011;5659;49.408;11.116;2023-05-07T10:25:23;3.13;;;2.70;;
11203;SDS011;5659;49.408;11.116;2023-05-07T10:27:51;4.22;;;2.78;;
11203;SDS011;5659;49.408;11.116;2023-05-07T10:30:38;3.22;;;2.70;;
11203;SDS011;5659;49.408;11.116;2023-05-07T10:33:06;3.15;;;2.80;;
11203;SDS011;5659;49.408;11.116;2023-05-07T10:35:38;3.13;;;2.83;;
11203;SDS011;5659;49.408;11.116;2023-05-07T10:38:05;3.25;;;2.40;;
11203;SDS011;5659;49.408;11.116;2023-05-07T10:40:32;4.78;;;1.98;;
11203;SDS011;5659;49.408;11.116;2023-05-07T10:43:01;3.08;;;1.65;;
11203;SDS011;5659;49.408;11.116;2023-05-07T10:45:29;4.70;;;2.10;;
11203;SDS011;5659;49.408;11.116;2023-05-07T10:48:12;2.85;;;1.80;;
11203;SDS011;5659;49.408;11.116;2023-05-07T10:50:42;2.03;;;1.77;;
11203;SDS011;5659;49.408;11.116;2023-05-07T10:58:25;3.53;;;2.53;;
11203;SDS011;5659;49.408;11.116;2023-05-07T11:00:58;2.67;;;1.83;;
11203;SDS011;5659;49.408;11.116;2023-05-07T11:03:25;3.28;;;2.17;;
11203;SDS011;5659;49.408;11.116;2023-05-07T11:08:55;4.00;;;2.10;;
11203;SDS011;5659;49.408;11.116;2023-05-07T11:14:05;2.58;;;2.00;;
11203;SDS011;5659;49.408;11.116;2023-05-07T11:16:31;5.03;;;2.40;;
11203;SDS011;5659;49.408;11.116;2023-05-07T11:18:58;4.07;;;2.30;;
11203;SDS011;5659;49.408;11.116;2023-05-07T11:21:37;3.40;;;1.80;;
11203;SDS011;5659;49.408;11.116;2023-05-07T11:24:04;3.25;;;2.17;;
11203;SDS011;5659;49.408;11.116;2023-05-07T11:26:32;2.30;;;2.10;;
11203;SDS011;5659;49.408;11.116;2023-05-07T11:29:41;2.88;;;2.22;;
11203;SDS011;5659;49.408;11.116;2023-05-07T11:32:00;4.35;;;2.50;;
11203;SDS011;5659;49.408;11.116;2023-05-07T11:34:26;3.65;;;2.45;;
11203;SDS011;5659;49.408;11.116;2023-05-07T11:36:52;4.80;;;2.60;;
11203;SDS011;5659;49.408;11.116;2023-05-07T11:39:26;3.05;;;2.55;;
11203;SDS011;5659;49.408;11.116;2023-05-07T11:42:00;5.05;;;2.45;;
11203;SDS011;5659;49.408;11.116;2023-05-07T11:44:45;5.00;;;2.78;;
11203;SDS011;5659;49.408;11.116;2023-05-07T11:47:19;4.07;;;2.55;;
11203;SDS011;5659;49.408;11.116;2023-05-07T11:49:49;3.45;;;2.83;;
11203;SDS011;5659;49.408;11.116;2023-05-07T11:52:15;3.03;;;2.70;;
11203;SDS011;5659;49.408;11.116;2023-05-07T11:54:48;3.47;;;2.83;;
11203;SDS011;5659;49.408;11.116;2023-05-07T11:57:14;4.32;;;2.47;;
11203;SDS011;5659;49.408;11.116;2023-05-07T11:59:40;2.60;;;2.40;;
11203;SDS011;5659;49.408;11.116;2023-05-07T12:02:07;5.15;;;2.50;;
11203;SDS011;5659;49.408;11.116;2023-05-07T12:04:33;2.67;;;2.47;;
11203;SDS011;5659;49.408;11.116;2023-05-07T12:06:59;2.50;;;2.28;;
11203;SDS011;5659;49.408;11.116;2023-05-07T12:09:26;4.57;;;2.33;;
11203;SDS011;5659;49.408;11.116;2023-05-07T12:11:52;3.80;;;2.13;;
11203;SDS011;5659;49.408;11.116;2023-05-07T12:14:18;2.35;;;2.15;;
11203;SDS011;5659;49.408;11.116;2023-05-07T12:16:44;4.38;;;2.65;;
11203;SDS011;5659;49.408;11.116;2023-05-07T12:19:11;2.35;;;2.15;;
11203;SDS011;5659;49.408;11.116;2023-05-07T12:21:37;2.33;;;2.00;;
11203;SDS011;5659;49.408;11.116;2023-05-07T12:24:04;3.03;;;2.20;;
11203;SDS011;5659;49.408;11.116;2023-05-07T12:26:30;3.75;;;2.13;;
11203;SDS011;5659;49.408;11.116;2023-05-07T12:28:59;2.90;;;2.10;;
11203;SDS011;5659;49.408;11.116;2023-05-07T12:31:25;2.97;;;2.50;;
11203;SDS011;5659;49.408;11.116;2023-05-07T12:33:51;3.40;;;2.50;;
11203;SDS011;5659;49.408;11.116;2023-05-07T12:36:18;3.30;;;2.08;;
11203;SDS011;5659;49.408;11.116;2023-05-07T12:38:44;3.00;;;2.20;;
11203;SDS011;5659;49.408;11.116;2023-05-07T12:41:10;3.88;;;2.17;;
11203;SDS011;5659;49.408;11.116;2023-05-07T12:43:39;6.15;;;2.17;;
11203;SDS011;5659;49.408;11.116;2023-05-07T12:46:06;4.20;;;2.30;;
11203;SDS011;5659;49.408;11.116;2023-05-07T12:48:37;4.47;;;1.95;;
11203;SDS011;5659;49.408;11.116;2023-05-07T12:51:05;2.38;;;2.17;;
11203;SDS011;5659;49.408;11.116;2023-05-07T12:53:31;4.40;;;2.22;;
11203;SDS011;5659;49.408;11.116;2023-05-07T12:55:58;3.88;;;2.13;;
11203;SDS011;5659;49.408;11.116;2023-05-07T12:58:28;4.28;;;2.03;;
11203;SDS011;5659;49.408;11.116;2023-05-07T13:00:59;2.60;;;1.92;;
11203;SDS011;5659;49.408;11.116;2023-05-07T13:05:51;2.30;;;2.10;;
11203;SDS011;5659;49.408;11.116;2023-05-07T13:08:26;2.38;;;2.15;;
11203;SDS011;5659;49.408;11.116;2023-05-07T13:10:52;4.57;;;2.05;;
11203;SDS011;5659;49.408;11.116;2023-05-07T13:13:18;4.05;;;2.40;;
11203;SDS011;5659;49.408;11.116;2023-05-07T13:15:45;3.78;;;2.00;;
11203;SDS011;5659;49.408;11.116;2023-05-07T13:18:11;4.85;;;1.90;;
11203;SDS011;5659;49.408;11.116;2023-05-07T13:20:37;2.42;;;1.80;;
11203;SDS011;5659;49.408;11.116;2023-05-07T13:23:03;3.20;;;2.17;;
11203;SDS011;5659;49.408;11.116;2023-05-07T13:25:29;2.00;;;1.80;;
11203;SDS011;5659;49.408;11.116;2023-05-07T13:27:59;2.25;;;2.05;;
11203;SDS011;5659;49.408;11.116;2023-05-07T13:30:25;4.50;;;2.00;;
11203;SDS011;5659;49.408;11.116;2023-05-07T13:32:51;3.35;;;2.05;;
11203;SDS011;5659;49.408;11.116;2023-05-07T13:35:17;4.18;;;2.70;;
11203;SDS011;5659;49.408;11.116;2023-05-07T13:37:43;2.72;;;1.90;;
11203;SDS011;5659;49.408;11.116;2023-05-07T13:40:10;2.20;;;2.00;;
11203;SDS011;5659;49.408;11.116;2023-05-07T13:42:36;2.75;;;1.98;;
11203;SDS011;5659;49.408;11.116;2023-05-07T13:45:02;3.10;;;2.00;;
11203;SDS011;5659;49.408;11.116;2023-05-07T13:47:30;2.45;;;1.98;;
11203;SDS011;5659;49.408;11.116;2023-05-07T13:49:56;1.98;;;1.80;;
11203;SDS011;5659;49.408;11.116;2023-05-07T13:52:22;3.28;;;1.92;;
11203;SDS011;5659;49.408;11.116;2023-05-07T13:54:47;4.10;;;2.42;;
11203;SDS011;5659;49.408;11.116;2023-05-07T13:57:13;2.38;;;2.17;;
11203;SDS011;5659;49.408;11.116;2023-05-07T13:59:40;3.40;;;2.38;;
11203;SDS011;5659;49.408;11.116;2023-05-07T14:02:06;2.70;;;2.15;;
11203;SDS011;5659;49.408;11.116;2023-05-07T14:04:33;2.33;;;1.92;;
11203;SDS011;5659;49.408;11.116;2023-05-07T14:07:00;3.38;;;2.28;;
11203;SDS011;5659;49.408;11.116;2023-05-07T14:09:25;2.75;;;2.33;;
11203;SDS011;5659;49.408;11.116;2023-05-07T14:11:51;4.30;;;2.40;;
11203;SDS011;5659;49.408;11.116;2023-05-07T14:14:18;2.63;;;2.38;;
11203;SDS011;5659;49.408;11.116;2023-05-07T14:16:44;2.78;;;2.53;;
11203;SDS011;5659;49.408;11.116;2023-05-07T14:19:10;2.90;;;2.60;;
11203;SDS011;5659;49.408;11.116;2023-05-07T14:21:36;4.55;;;2.88;;
11203;SDS011;5659;49.408;11.116;2023-05-07T14:24:02;3.17;;;2.90;;
11203;SDS011;5659;49.408;11.116;2023-05-07T14:26:28;5.43;;;3.00;;
11203;SDS011;5659;49.408;11.116;2023-05-07T14:28:55;4.32;;;2.63;;
11203;SDS011;5659;49.408;11.116;2023-05-07T14:31:23;3.83;;;2.92;;
11203;SDS011;5659;49.408;11.116;2023-05-07T14:33:49;6.65;;;3.15;;
11203;SDS011;5659;49.408;11.116;2023-05-07T14:36:16;4.25;;;3.30;;
11203;SDS011;5659;49.408;11.116;2023-05-07T14:38:42;4.68;;;2.88;;
11203;SDS011;5659;49.408;11.116;2023-05-07T14:41:08;3.42;;;3.13;;
11203;SDS011;5659;49.408;11.116;2023-05-07T14:43:33;4.57;;;2.80;;
11203;SDS011;5659;49.408;11.116;2023-05-07T14:46:00;3.22;;;2.65;;
11203;SDS011;5659;49.408;11.116;2023-05-07T14:48:26;6.75;;;3.38;;
11203;SDS011;5659;49.408;11.116;2023-05-07T14:50:52;4.55;;;3.22;;
11203;SDS011;5659;49.408;11.116;2023-05-07T14:53:17;4.40;;;3.47;;
11203;SDS011;5659;49.408;11.116;2023-05-07T14:55:44;3.45;;;3.15;;
11203;SDS011;5659;49.408;11.116;2023-05-07T14:58:10;3.88;;;3.40;;
11203;SDS011;5659;49.408;11.116;2023-05-07T15:00:36;4.60;;;2.92;;